Time;durP1;ratioP1;P1;durP2;ratioP2;P2;SDS_P1;SDS_P2;PMS_P1;PMS_P2;Temp;Humidity;BMP_temperature;BMP_pressure;BME280_temperature;BME280_humidity;BME280_pressure;Samples;Min_cycle;Max_cycle;Signal;HPM_P1;HPM_P2
2021/01/27 00:00:27;;;;;;;15.30;8.10;;;;;;;-0.25;100.00;99980.16;1821071;78;21377;-55
2021/01/27 00:02:54;;;;;;;18.65;7.72;;;;;;;-0.30;100.00;99952.08;1820902;78;21040;-55
2021/01/27 00:05:28;;;;;;;17.85;8.95;;;;;;;-0.32;100.00;99973.60;1821075;78;21127;-55
2021/01/27 00:07:55;;;;;;;18.45;9.55;;;;;;;-0.34;100.00;99983.23;1821023;78;21131;-56
2021/01/27 00:10:25;;;;;;;21.12;9.13;;;;;;;-0.36;100.00;99970.52;1821016;78;21171;-57
2021/01/27 00:12:52;;;;;;;22.15;9.18;;;;;;;-0.36;100.00;99942.86;1820984;78;21566;-58
2021/01/27 00:15:29;;;;;;;16.77;8.73;;;;;;;-0.37;100.00;99965.27;1821017;78;20925;-58
2021/01/27 00:17:58;;;;;;;19.87;9.55;;;;;;;-0.38;100.00;99943.31;1821118;78;21516;-58
2021/01/27 00:20:26;;;;;;;20.23;9.53;;;;;;;-0.36;100.00;99934.95;1821195;78;21123;-59
2021/01/27 00:22:56;;;;;;;16.17;8.53;;;;;;;-0.35;100.00;99945.92;1821098;78;21132;-61
2021/01/27 00:25:29;;;;;;;21.80;10.35;;;;;;;-0.34;100.00;99951.62;1821150;78;21190;-59
2021/01/27 00:27:57;;;;;;;20.02;9.55;;;;;;;-0.34;100.00;99934.97;1820821;78;21107;-59
2021/01/27 00:30:34;;;;;;;18.70;10.53;;;;;;;-0.34;100.00;99938.45;1821134;78;21159;-59
2021/01/27 00:33:02;;;;;;;35.28;10.18;;;;;;;-0.34;100.00;99937.14;1821206;78;21033;-59
2021/01/27 00:35:33;;;;;;;21.62;10.03;;;;;;;-0.34;100.00;99919.16;1821142;78;21036;-59
2021/01/27 00:38:11;;;;;;;16.55;8.53;;;;;;;-0.32;100.00;99922.23;1820220;78;21356;-60
2021/01/27 00:40:38;;;;;;;16.17;8.93;;;;;;;-0.33;100.00;99934.08;1821525;78;21173;-62
2021/01/27 00:43:06;;;;;;;18.40;9.00;;;;;;;-0.34;100.00;99925.28;1822442;78;21175;-63
2021/01/27 00:45:33;;;;;;;19.27;9.85;;;;;;;-0.36;100.00;99908.62;1822283;78;21134;-66
2021/01/27 00:48:01;;;;;;;19.47;9.90;;;;;;;-0.37;100.00;99898.96;1822359;78;21091;-67
2021/01/27 00:50:28;;;;;;;18.20;9.20;;;;;;;-0.37;100.00;99906.86;1822304;78;21418;-69
2021/01/27 00:52:56;;;;;;;18.57;9.25;;;;;;;-0.38;100.00;99934.55;1822199;78;21111;-71
2021/01/27 00:55:29;;;;;;;17.95;9.28;;;;;;;-0.39;100.00;99892.83;1822343;78;21099;-72
2021/01/27 00:58:00;;;;;;;15.50;7.00;;;;;;;-0.39;100.00;99894.14;1822327;78;21111;-71
2021/01/27 01:00:30;;;;;;;20.12;8.50;;;;;;;-0.39;100.00;99902.05;1822272;78;21125;-68
2021/01/27 01:02:58;;;;;;;16.45;8.30;;;;;;;-0.41;100.00;99901.18;1822357;78;22228;-66
2021/01/27 01:05:30;;;;;;;14.95;8.05;;;;;;;-0.42;100.00;99918.33;1822236;78;21126;-67
2021/01/27 01:07:57;;;;;;;16.67;8.15;;;;;;;-0.43;100.00;99906.89;1822287;78;21169;-66
2021/01/27 01:10:32;;;;;;;14.70;8.25;;;;;;;-0.45;100.00;99877.92;1822199;78;21019;-65
2021/01/27 01:13:00;;;;;;;17.60;8.90;;;;;;;-0.44;100.00;99866.95;1822344;78;21055;-64
2021/01/27 01:15:29;;;;;;;16.15;7.85;;;;;;;-0.43;100.00;99880.56;1822275;78;21720;-63
2021/01/27 01:17:57;;;;;;;22.30;7.67;;;;;;;-0.42;100.00;99890.20;1822196;78;21133;-62
2021/01/27 01:20:27;;;;;;;18.65;8.23;;;;;;;-0.41;100.00;99872.20;1822268;78;21562;-63
2021/01/27 01:22:59;;;;;;;14.03;7.12;;;;;;;-0.42;100.00;99881.45;1822431;78;21539;-62
2021/01/27 01:25:29;;;;;;;16.85;7.37;;;;;;;-0.45;100.00;99853.36;1822452;78;21668;-61
2021/01/27 01:27:57;;;;;;;13.13;6.85;;;;;;;-0.46;100.00;99871.36;1822336;78;21336;-61
2021/01/27 01:30:28;;;;;;;13.50;6.67;;;;;;;-0.47;100.00;99855.98;1822186;78;21142;-61
2021/01/27 01:33:02;;;;;;;16.37;8.08;;;;;;;-0.46;100.00;99847.66;1822423;78;21500;-61
2021/01/27 01:35:30;;;;;;;14.85;7.35;;;;;;;-0.45;100.00;99829.66;1821704;78;21063;-62
2021/01/27 01:37:58;;;;;;;13.95;7.00;;;;;;;-0.46;100.00;99824.81;1823024;78;21116;-62
2021/01/27 01:40:32;;;;;;;15.45;7.75;;;;;;;-0.46;100.00;99852.92;1836762;76;21362;-62
2021/01/27 01:43:11;;;;;;;16.20;7.75;;;;;;;-0.48;100.00;99819.14;1848815;77;25267;-63
2021/01/27 01:45:44;;;;;;;16.15;6.33;;;;;;;-0.49;100.00;99810.80;1848723;77;21111;-64
2021/01/27 01:48:40;;;;;;;13.38;6.55;;;;;;;-0.50;100.00;99868.30;1848646;77;21199;-64
2021/01/27 01:51:31;;;;;;;13.45;6.42;;;;;;;-0.52;100.00;99833.20;1848731;77;21091;-65
2021/01/27 01:54:05;;;;;;;12.05;6.33;;;;;;;-0.52;100.00;99808.19;1848673;77;21421;-64
2021/01/27 01:56:34;;;;;;;15.70;6.42;;;;;;;-0.54;100.00;99827.08;1848570;77;21060;-64
2021/01/27 01:59:04;;;;;;;15.53;7.50;;;;;;;-0.55;100.00;99856.89;1848742;77;21482;-65
2021/01/27 02:01:32;;;;;;;15.40;6.87;;;;;;;-0.55;100.00;99793.70;1848631;77;21147;-65
2021/01/27 02:04:00;;;;;;;14.18;6.00;;;;;;;-0.56;100.00;99798.53;1848708;77;21120;-65
2021/01/27 02:06:28;;;;;;;10.85;5.62;;;;;;;-0.58;100.00;99845.95;1848566;77;21356;-64
2021/01/27 02:08:57;;;;;;;14.97;7.33;;;;;;;-0.58;100.00;99808.63;1848608;77;21120;-63
2021/01/27 02:12:08;;;;;;;13.88;6.33;;;;;;;-0.58;100.00;99815.21;1848567;77;21123;-63
2021/01/27 02:15:15;;;;;;;13.50;6.60;;;;;;;-0.58;100.00;99792.83;1847733;77;21548;-64
2021/01/27 02:18:06;;;;;;;11.85;6.83;;;;;;;-0.59;100.00;99780.55;1848714;77;21032;-65
2021/01/27 02:21:13;;;;;;;14.33;7.58;;;;;;;-0.59;100.00;99785.81;1848480;77;23524;-64
2021/01/27 02:24:10;;;;;;;13.23;7.17;;;;;;;-0.59;100.00;99795.48;1848532;77;21046;-64
2021/01/27 02:26:52;;;;;;;14.53;6.30;;;;;;;-0.60;100.00;99786.70;1795357;77;21112;-64
2021/01/27 02:29:46;;;;;;;16.17;6.60;;;;;;;-0.60;100.00;99800.33;1848508;77;21052;-64
2021/01/27 02:32:40;;;;;;;12.27;6.17;;;;;;;-0.60;100.00;99845.94;1848723;77;21043;-63
2021/01/27 02:35:38;;;;;;;11.93;5.93;;;;;;;-0.55;100.00;99793.27;1873232;75;23286;-63
2021/01/27 02:38:12;;;;;;;13.15;6.65;;;;;;;-0.61;100.00;99806.47;1787686;80;21074;-64
2021/01/27 02:41:07;;;;;;;14.47;7.33;;;;;;;-0.61;100.00;99803.38;1812860;78;22075;-64
2021/01/27 02:43:41;;;;;;;11.93;6.83;;;;;;;-0.61;100.00;99755.98;1822789;78;20932;-65
2021/01/27 02:46:17;;;;;;;12.50;6.70;;;;;;;-0.60;100.00;99797.69;1822938;78;21527;-64
2021/01/27 02:49:02;;;;;;;12.68;6.33;;;;;;;-0.61;100.00;99815.69;1822732;78;21016;-64
2021/01/27 02:52:00;;;;;;;11.63;6.70;;;;;;;-0.62;100.00;99755.56;1822968;78;20968;-63
2021/01/27 02:54:45;;;;;;;12.37;6.17;;;;;;;-0.61;100.00;99782.32;1822708;78;21185;-63
2021/01/27 02:57:24;;;;;;;14.93;7.63;;;;;;;-0.61;100.00;99764.34;1822682;78;20980;-64
2021/01/27 03:00:05;;;;;;;12.90;6.95;;;;;;;-0.62;100.00;99762.14;1822666;78;20976;-65
2021/01/27 03:02:44;;;;;;;13.67;6.53;;;;;;;-0.62;100.00;99784.52;1822092;78;21063;-65
2021/01/27 03:05:36;;;;;;;9.00;5.08;;;;;;;-0.62;100.00;99804.27;1822688;78;22193;-64
2021/01/27 03:08:10;;;;;;;12.40;5.92;;;;;;;-0.62;100.00;99796.83;1822753;78;21206;-63
2021/01/27 03:10:48;;;;;;;13.58;6.28;;;;;;;-0.63;100.00;99768.75;1802286;78;21107;-63
2021/01/27 03:13:16;;;;;;;13.95;4.50;;;;;;;-0.64;100.00;99744.16;1822611;78;20997;-62
2021/01/27 03:15:44;;;;;;;10.25;5.95;;;;;;;-0.64;100.00;99758.64;1822663;78;21126;-62
2021/01/27 03:18:20;;;;;;;14.55;6.55;;;;;;;-0.63;100.00;99734.52;1822734;78;21095;-61
2021/01/27 03:20:47;;;;;;;10.55;6.00;;;;;;;-0.63;100.00;99735.38;1822709;78;21128;-61
2021/01/27 03:23:25;;;;;;;13.85;5.67;;;;;;;-0.62;100.00;99743.71;1822486;78;21067;-61
2021/01/27 03:26:08;;;;;;;12.25;6.65;;;;;;;-0.61;100.00;99771.79;1822475;78;21146;-61
2021/01/27 03:28:44;;;;;;;12.23;6.40;;;;;;;-0.61;100.00;99755.98;1822604;78;21066;-60
2021/01/27 03:31:11;;;;;;;13.60;6.08;;;;;;;-0.61;100.00;99746.77;1822666;78;21078;-59
2021/01/27 03:33:43;;;;;;;14.58;7.83;;;;;;;-0.61;100.00;99738.88;1822461;78;21354;-59
2021/01/27 03:36:12;;;;;;;12.47;6.50;;;;;;;-0.60;100.00;99720.88;1822562;78;20971;-59
2021/01/27 03:38:46;;;;;;;12.43;6.37;;;;;;;-0.60;100.00;99755.11;1837014;78;21101;-60
2021/01/27 03:41:19;;;;;;;12.90;6.75;;;;;;;-0.59;100.00;99768.70;1812628;78;21171;-60
2021/01/27 03:44:16;;;;;;;15.38;6.60;;;;;;;-0.61;100.00;99755.98;1840682;78;21167;-60
2021/01/27 03:46:55;;;;;;;13.03;6.90;;;;;;;-0.62;100.00;99751.61;1840369;78;21364;-61
2021/01/27 03:49:39;;;;;;;14.47;6.85;;;;;;;-0.61;100.00;99747.23;1840395;78;20922;-60
2021/01/27 03:52:20;;;;;;;14.23;6.20;;;;;;;-0.62;100.00;99759.51;1833855;78;21128;-61
2021/01/27 03:54:57;;;;;;;13.70;6.85;;;;;;;-0.62;100.00;99739.77;1840309;78;20942;-60
2021/01/27 03:57:30;;;;;;;14.28;6.58;;;;;;;-0.63;100.00;99747.69;1840478;78;20993;-60
2021/01/27 03:59:57;;;;;;;10.63;5.72;;;;;;;-0.63;100.00;99760.39;1840373;78;21311;-60
2021/01/27 04:02:25;;;;;;;14.00;6.33;;;;;;;-0.63;100.00;99754.27;1840378;78;21041;-61
2021/01/27 04:04:53;;;;;;;13.72;6.92;;;;;;;-0.62;100.00;99752.06;1840397;78;20961;-61
2021/01/27 04:07:21;;;;;;;10.08;5.67;;;;;;;-0.62;100.00;99727.91;1840377;78;21106;-61
2021/01/27 04:09:48;;;;;;;11.73;6.12;;;;;;;-0.63;100.00;99743.28;1840383;78;21112;-61
2021/01/27 04:12:16;;;;;;;11.80;5.62;;;;;;;-0.63;100.00;99726.16;1840376;78;21187;-60
2021/01/27 04:14:43;;;;;;;12.98;6.15;;;;;;;-0.64;100.00;99783.66;1840374;78;20894;-60
2021/01/27 04:17:27;;;;;;;12.58;6.42;;;;;;;-0.64;100.00;99742.84;1840343;78;21104;-61
2021/01/27 04:19:57;;;;;;;13.60;5.20;;;;;;;-0.66;100.00;99747.25;1840346;78;21029;-61
2021/01/27 04:22:24;;;;;;;13.53;6.42;;;;;;;-0.65;100.00;99746.36;1840366;78;20879;-62
2021/01/27 04:24:52;;;;;;;14.03;6.45;;;;;;;-0.65;100.00;99759.53;1840456;78;21370;-60
2021/01/27 04:27:20;;;;;;;10.23;5.58;;;;;;;-0.65;100.00;99752.95;1840242;78;21108;-60
2021/01/27 04:29:48;;;;;;;13.65;6.33;;;;;;;-0.66;100.00;99780.16;1840367;78;20974;-60
2021/01/27 04:32:15;;;;;;;11.15;5.87;;;;;;;-0.66;100.00;99714.80;1840317;78;21473;-60
2021/01/27 04:34:43;;;;;;;12.50;7.22;;;;;;;-0.66;100.00;99735.41;1843530;77;21048;-60
2021/01/27 04:37:11;;;;;;;13.05;6.22;;;;;;;-0.64;100.00;99742.84;1843382;77;21380;-60
2021/01/27 04:39:38;;;;;;;12.37;7.20;;;;;;;-0.65;100.00;99698.98;1830034;78;21106;-62
2021/01/27 04:42:09;;;;;;;12.07;6.70;;;;;;;-0.65;100.00;99709.51;1830080;78;20881;-61
2021/01/27 04:44:36;;;;;;;11.03;6.45;;;;;;;-0.64;100.00;99773.13;1830149;78;21130;-60
2021/01/27 04:47:29;;;;;;;13.43;6.10;;;;;;;-0.66;100.00;99713.03;1830172;78;21078;-60
2021/01/27 04:50:02;;;;;;;16.95;5.87;;;;;;;-0.66;100.00;99718.75;1830069;78;22599;-60
2021/01/27 04:53:01;;;;;;;13.13;5.85;;;;;;;-0.68;100.00;99713.48;1830082;78;20984;-59
2021/01/27 04:55:52;;;;;;;10.25;5.47;;;;;;;-0.69;100.00;99763.48;1829503;78;21130;-59
2021/01/27 04:58:57;;;;;;;13.00;6.28;;;;;;;-0.72;100.00;99724.91;1829975;78;20999;-59
2021/01/27 05:01:43;;;;;;;15.85;7.08;;;;;;;-0.73;100.00;99736.33;1830285;78;20979;-59
2021/01/27 05:04:36;;;;;;;13.28;7.33;;;;;;;-0.73;100.00;99732.38;1829782;78;22039;-58
2021/01/27 05:07:08;;;;;;;12.53;6.20;;;;;;;-0.72;100.00;99665.69;1830030;78;20987;-58
2021/01/27 05:09:44;;;;;;;15.00;7.12;;;;;;;-0.70;100.00;99682.77;1829681;78;21038;-58
2021/01/27 05:12:11;;;;;;;14.30;7.12;;;;;;;-0.71;100.00;99658.22;1830182;78;25119;-57
2021/01/27 05:14:39;;;;;;;13.43;6.22;;;;;;;-0.72;100.00;99664.38;1830110;78;20972;-58
2021/01/27 05:17:10;;;;;;;12.78;6.42;;;;;;;-0.73;100.00;99687.63;1830082;78;21355;-58
2021/01/27 05:19:38;;;;;;;17.27;7.37;;;;;;;-0.73;100.00;99668.75;1830138;78;21574;-57
2021/01/27 05:22:06;;;;;;;13.45;7.03;;;;;;;-0.73;100.00;99681.05;1830016;78;20991;-57
2021/01/27 05:24:34;;;;;;;15.18;6.97;;;;;;;-0.74;100.00;99652.98;1830025;78;21085;-57
2021/01/27 05:27:14;;;;;;;10.50;6.00;;;;;;;-0.74;100.00;99649.03;1830045;77;21122;-57
2021/01/27 05:30:04;;;;;;;15.55;7.58;;;;;;;-0.73;100.00;99654.73;1830089;78;21275;-58
2021/01/27 05:32:51;;;;;;;13.90;6.80;;;;;;;-0.73;100.00;99637.62;1829338;78;21058;-58
2021/01/27 05:35:35;;;;;;;14.93;7.47;;;;;;;-0.75;100.00;99644.19;1826057;78;21546;-58
2021/01/27 05:38:27;;;;;;;11.53;6.20;;;;;;;-0.73;100.00;99646.38;1832529;78;21065;-58
2021/01/27 05:41:05;;;;;;;11.30;5.03;;;;;;;-0.73;100.00;99646.38;1840384;78;21021;-57
2021/01/27 05:43:32;;;;;;;14.80;6.60;;;;;;;-0.72;100.00;99649.89;1818149;78;21365;-57
2021/01/27 05:46:13;;;;;;;11.55;6.08;;;;;;;-0.72;100.00;99632.78;1810260;78;21008;-58
2021/01/27 05:48:47;;;;;;;9.80;4.83;;;;;;;-0.73;100.00;99629.72;1754628;81;20955;-57
2021/01/27 05:51:20;;;;;;;16.90;7.47;;;;;;;-0.74;100.00;99621.39;1777774;80;21498;-57
2021/01/27 05:53:47;;;;;;;13.63;5.40;;;;;;;-0.73;100.00;99643.73;1787458;79;21198;-56
2021/01/27 05:56:22;;;;;;;12.28;5.70;;;;;;;-0.75;100.00;99642.02;1789603;80;21688;-57
2021/01/27 05:59:06;;;;;;;13.60;5.78;;;;;;;-0.75;100.00;99653.41;1789438;80;21531;-56
2021/01/27 06:01:46;;;;;;;12.88;6.53;;;;;;;-0.75;100.00;99619.65;1789563;80;21055;-56
2021/01/27 06:04:27;;;;;;;12.80;5.58;;;;;;;-0.76;100.00;99646.39;1789555;80;21051;-56
2021/01/27 06:07:06;;;;;;;14.25;6.08;;;;;;;-0.76;100.00;99638.95;1789589;80;20980;-56
2021/01/27 06:09:47;;;;;;;11.63;5.87;;;;;;;-0.77;100.00;99627.54;1789636;80;21387;-56
2021/01/27 06:12:25;;;;;;;11.80;6.00;;;;;;;-0.76;100.00;99638.50;1789439;80;20948;-56
2021/01/27 06:15:10;;;;;;;11.38;5.85;;;;;;;-0.76;100.00;99662.64;1789585;80;20992;-56
2021/01/27 06:17:49;;;;;;;11.20;5.97;;;;;;;-0.76;100.00;99624.48;1789707;80;21199;-56
2021/01/27 06:20:28;;;;;;;10.90;6.57;;;;;;;-0.75;100.00;99619.65;1789482;80;21039;-56
2021/01/27 06:23:21;;;;;;;11.75;5.90;;;;;;;-0.75;100.00;99622.28;1789742;80;21330;-56
2021/01/27 06:26:26;;;;;;;10.13;4.67;;;;;;;-0.74;100.00;99618.77;1762105;79;21173;-56
2021/01/27 06:29:28;;;;;;;13.10;5.58;;;;;;;-0.75;100.00;99633.66;1789790;80;21412;-56
2021/01/27 06:32:27;;;;;;;12.45;6.28;;;;;;;-0.74;100.00;99620.94;1789563;79;21162;-57
2021/01/27 06:35:36;;;;;;;13.58;5.70;;;;;;;-0.75;100.00;99634.98;1789428;80;21122;-56
2021/01/27 06:38:43;;;;;;;12.75;6.62;;;;;;;-0.74;100.00;99599.88;1765978;80;21407;-56
2021/01/27 06:41:25;;;;;;;9.48;5.17;;;;;;;-0.75;100.00;99624.45;1782323;80;21123;-57
2021/01/27 06:44:20;;;;;;;10.72;6.35;;;;;;;-0.73;100.00;99599.45;1782309;80;21076;-57
2021/01/27 06:47:20;;;;;;;10.35;4.78;;;;;;;-0.75;100.00;99596.81;1756696;81;20982;-56
2021/01/27 06:50:00;;;;;;;12.95;4.97;;;;;;;-0.74;100.00;99633.23;1770800;81;21123;-56
2021/01/27 06:52:59;;;;;;;10.90;5.62;;;;;;;-0.75;100.00;99620.97;1756686;81;21696;-57
2021/01/27 06:55:52;;;;;;;16.70;8.15;;;;;;;-0.74;100.00;99599.02;1776733;80;21074;-57
2021/01/27 06:58:52;;;;;;;13.15;5.97;;;;;;;-0.73;100.00;99558.66;1776703;80;21149;-56
2021/01/27 07:01:46;;;;;;;10.58;5.25;;;;;;;-0.73;100.00;99598.13;1732137;80;21139;-56
2021/01/27 07:04:44;;;;;;;12.15;6.28;;;;;;;-0.73;100.00;99571.81;1756329;81;21173;-56
2021/01/27 07:07:36;;;;;;;8.03;5.00;;;;;;;-0.73;100.00;99508.64;1776713;80;21083;-56
2021/01/27 07:10:31;;;;;;;9.80;5.30;;;;;;;-0.73;100.00;99548.12;1756625;81;21065;-56
2021/01/27 07:13:37;;;;;;;11.77;5.53;;;;;;;-0.73;100.00;99550.30;1770738;81;21190;-56
2021/01/27 07:16:26;;;;;;;10.43;5.05;;;;;;;-0.74;100.00;99545.92;1756289;81;21065;-56
2021/01/27 07:19:18;;;;;;;14.68;6.20;;;;;;;-0.73;100.00;99544.17;1776544;80;21059;-56
2021/01/27 07:22:03;;;;;;;7.60;4.23;;;;;;;-0.73;100.00;99556.88;1756773;81;22490;-56
2021/01/27 07:24:53;;;;;;;15.18;5.08;;;;;;;-0.73;100.00;99646.83;1740735;80;21118;-56
2021/01/27 07:27:22;;;;;;;12.25;5.60;;;;;;;-0.73;100.00;99547.66;1777011;80;21493;-57
2021/01/27 07:30:03;;;;;;;13.08;6.65;;;;;;;-0.73;100.00;99527.92;1776830;80;21550;-56
2021/01/27 07:32:50;;;;;;;7.95;4.33;;;;;;;-0.72;100.00;99569.61;1756782;81;21172;-55
2021/01/27 07:35:50;;;;;;;8.75;5.00;;;;;;;-0.72;100.00;99572.24;1770753;80;21200;-56
2021/01/27 07:38:20;;;;;;;11.18;5.33;;;;;;;-0.71;100.00;99554.25;1756914;81;21141;-55
2021/01/27 07:40:58;;;;;;;10.38;5.87;;;;;;;-0.72;100.00;99567.83;1758526;81;21577;-55
2021/01/27 07:43:39;;;;;;;12.35;5.72;;;;;;;-0.71;100.00;99555.56;1758600;81;21473;-54
2021/01/27 07:46:07;;;;;;;10.90;6.62;;;;;;;-0.70;100.00;99574.42;1758513;81;21054;-54
2021/01/27 07:48:43;;;;;;;13.97;6.90;;;;;;;-0.71;100.00;99543.72;1758449;81;21193;-55
2021/01/27 07:51:25;;;;;;;9.63;4.78;;;;;;;-0.70;100.00;99545.46;1758305;81;21150;-56
2021/01/27 07:54:27;;;;;;;10.13;5.60;;;;;;;-0.69;100.00;99565.63;1758532;81;21038;-56
2021/01/27 07:57:04;;;;;;;16.23;5.47;;;;;;;-0.68;100.00;99552.01;1758390;81;21059;-55
2021/01/27 07:59:42;;;;;;;13.38;6.08;;;;;;;-0.68;100.00;99602.02;1758510;81;21475;-55
2021/01/27 08:02:15;;;;;;;10.60;5.72;;;;;;;-0.67;100.00;99573.07;1758458;81;21426;-55
2021/01/27 08:04:46;;;;;;;9.70;4.87;;;;;;;-0.68;100.00;99562.11;1758388;81;21492;-56
2021/01/27 08:07:33;;;;;;;13.40;6.47;;;;;;;-0.67;100.00;99586.23;1758483;81;21210;-55
2021/01/27 08:10:23;;;;;;;13.45;6.95;;;;;;;-0.67;100.00;99566.49;1758385;81;21154;-55
2021/01/27 08:13:02;;;;;;;18.02;7.53;;;;;;;-0.67;100.00;99559.91;1758420;81;21150;-54
2021/01/27 08:15:44;;;;;;;11.60;6.00;;;;;;;-0.66;100.00;99552.44;1753227;80;21363;-54
2021/01/27 08:18:19;;;;;;;13.38;6.40;;;;;;;-0.65;100.00;99596.77;1749941;82;21093;-54
2021/01/27 08:20:48;;;;;;;13.93;6.20;;;;;;;-0.65;100.00;99564.72;1755059;80;21550;-54
2021/01/27 08:23:34;;;;;;;11.97;4.97;;;;;;;-0.66;100.00;99588.44;1700145;80;21098;-54
2021/01/27 08:26:07;;;;;;;10.88;5.30;;;;;;;-0.66;100.00;99580.08;1780680;80;21177;-55
2021/01/27 08:28:43;;;;;;;13.80;5.97;;;;;;;-0.66;100.00;99593.24;1779583;80;21544;-55
2021/01/27 08:31:18;;;;;;;13.08;6.85;;;;;;;-0.66;100.00;99557.70;1780694;80;21121;-55
2021/01/27 08:33:54;;;;;;;11.68;5.53;;;;;;;-0.66;100.00;99568.23;1781021;80;21082;-54
2021/01/27 08:36:35;;;;;;;10.13;5.37;;;;;;;-0.65;100.00;99572.61;1793056;79;21064;-55
2021/01/27 08:42:01;;;;;;;10.83;6.07;;;;;;;-0.60;100.00;99570.81;1873016;76;22047;-54
2021/01/27 08:44:40;;;;;;;15.50;7.47;;;;;;;-0.65;100.00;99554.19;1840853;78;21028;-56
2021/01/27 08:47:27;;;;;;;12.28;6.47;;;;;;;-0.64;100.00;99553.30;1825069;77;21366;-55
2021/01/27 08:50:00;;;;;;;12.40;6.00;;;;;;;-0.64;100.00;99540.14;1837565;78;21199;-55
2021/01/27 08:52:33;;;;;;;11.50;6.05;;;;;;;-0.64;100.00;99537.50;1840849;78;20962;-55
2021/01/27 08:55:01;;;;;;;10.45;5.65;;;;;;;-0.64;100.00;99562.52;1840696;78;20938;-55
2021/01/27 08:57:33;;;;;;;15.43;6.25;;;;;;;-0.63;100.00;99549.78;1840916;78;21029;-55
2021/01/27 09:00:14;;;;;;;14.73;7.08;;;;;;;-0.63;100.00;99534.45;1840800;78;21362;-55
2021/01/27 09:02:50;;;;;;;13.90;6.12;;;;;;;-0.63;100.00;99520.81;1840588;78;21536;-55
2021/01/27 09:05:27;;;;;;;15.45;6.72;;;;;;;-0.62;100.00;99527.83;1840483;78;21059;-54
2021/01/27 09:07:59;;;;;;;11.43;5.80;;;;;;;-0.62;100.00;99560.73;1840921;78;20914;-53
2021/01/27 09:10:34;;;;;;;13.98;6.67;;;;;;;-0.62;100.00;99496.23;1841098;78;21037;-53
2021/01/27 09:13:30;;;;;;;9.43;4.90;;;;;;;-0.62;100.00;99530.46;1841176;78;27275;-54
2021/01/27 09:16:08;;;;;;;15.35;6.17;;;;;;;-0.61;100.00;99555.90;1823162;78;21068;-53
2021/01/27 09:18:36;;;;;;;15.05;6.60;;;;;;;-0.61;100.00;99490.09;1825114;78;21049;-53
2021/01/27 09:21:10;;;;;;;12.55;5.83;;;;;;;-0.61;100.00;99530.03;1790089;78;21202;-54
2021/01/27 09:23:39;;;;;;;11.25;5.70;;;;;;;-0.60;100.00;99514.20;1825506;78;21144;-53
2021/01/27 09:26:17;;;;;;;12.13;6.62;;;;;;;-0.60;100.00;99506.31;1823172;78;22227;-54
2021/01/27 09:28:44;;;;;;;11.20;5.27;;;;;;;-0.60;100.00;99487.88;1822600;78;21525;-53
2021/01/27 09:31:21;;;;;;;13.05;6.40;;;;;;;-0.60;100.00;99508.94;1823190;78;21144;-53
2021/01/27 09:33:48;;;;;;;14.43;5.12;;;;;;;-0.59;100.00;99544.91;1824207;78;21599;-54
2021/01/27 09:36:26;;;;;;;12.43;5.47;;;;;;;-0.58;100.00;99518.16;1758848;81;21089;-54
2021/01/27 09:38:57;;;;;;;11.45;5.87;;;;;;;-0.59;100.00;99535.70;1750781;80;21221;-55
2021/01/27 09:41:33;;;;;;;12.03;5.47;;;;;;;-0.59;100.00;99488.31;1754105;80;21190;-55
2021/01/27 09:43:58;;;;;;;12.10;4.53;;;;;;;-0.59;100.00;99484.36;1764376;80;21176;-56
2021/01/27 09:46:33;;;;;;;13.98;4.90;;;;;;;-0.59;100.00;99459.34;1781350;80;21117;-55
2021/01/27 09:49:11;;;;;;;11.38;6.25;;;;;;;-0.60;100.00;99485.25;1781169;80;21117;-55
2021/01/27 09:51:45;;;;;;;12.95;4.95;;;;;;;-0.59;100.00;99480.88;1780946;80;21649;-56
2021/01/27 09:54:17;;;;;;;9.58;5.10;;;;;;;-0.59;100.00;99458.03;1780741;80;21176;-55
2021/01/27 09:56:48;;;;;;;8.78;4.75;;;;;;;-0.60;100.00;99489.20;1780721;80;21136;-56
2021/01/27 09:59:16;;;;;;;14.05;7.10;;;;;;;-0.60;100.00;99452.34;1780835;80;21026;-56
2021/01/27 10:01:46;;;;;;;9.50;5.33;;;;;;;-0.60;100.00;99439.64;1780626;80;21097;-57
2021/01/27 10:04:18;;;;;;;12.30;7.08;;;;;;;-0.60;100.00;99472.08;1780734;80;22258;-57
2021/01/27 10:06:54;;;;;;;10.28;5.22;;;;;;;-0.59;100.00;99439.60;1780785;80;21569;-56
2021/01/27 10:09:28;;;;;;;10.90;6.30;;;;;;;-0.60;100.00;99468.13;1780649;80;21136;-56
2021/01/27 10:12:04;;;;;;;16.27;8.68;;;;;;;-0.60;100.00;99426.02;1780956;80;21648;-55
2021/01/27 10:14:40;;;;;;;11.63;5.07;;;;;;;-0.54;100.00;99434.76;1872838;76;22797;-55
2021/01/27 10:17:11;;;;;;;16.07;6.67;;;;;;;-0.60;100.00;99465.50;1837838;77;21159;-55
2021/01/27 10:19:48;;;;;;;13.70;5.28;;;;;;;-0.60;100.00;99411.53;1841301;77;22235;-55
2021/01/27 10:22:33;;;;;;;13.62;5.33;;;;;;;-0.59;100.00;99470.34;1840885;78;21052;-56
2021/01/27 10:25:26;;;;;;;11.12;5.95;;;;;;;-0.59;100.00;99453.23;1840877;78;21195;-56
2021/01/27 10:28:17;;;;;;;11.50;5.37;;;;;;;-0.60;100.00;99399.69;1793900;78;21127;-55
2021/01/27 10:31:01;;;;;;;12.93;4.53;;;;;;;-0.60;100.00;99445.76;1840727;78;21079;-55
2021/01/27 10:33:48;;;;;;;11.18;4.95;;;;;;;-0.60;100.00;99415.48;1840891;78;21179;-55
2021/01/27 10:36:33;;;;;;;13.10;6.10;;;;;;;-0.61;100.00;99366.35;1840865;78;20989;-55
2021/01/27 10:39:23;;;;;;;12.53;5.78;;;;;;;-0.60;100.00;99392.25;1791527;78;20959;-56
2021/01/27 10:42:14;;;;;;;11.80;5.25;;;;;;;-0.60;100.00;99368.09;1782632;80;21154;-55
2021/01/27 10:44:44;;;;;;;12.78;6.78;;;;;;;-0.59;100.00;99386.09;1778066;80;21125;-55
2021/01/27 10:47:30;;;;;;;11.75;5.87;;;;;;;-0.58;100.00;99380.80;1782504;80;21162;-55
2021/01/27 10:49:58;;;;;;;10.45;6.40;;;;;;;-0.60;100.00;99383.89;1782507;80;20948;-58
2021/01/27 10:52:28;;;;;;;12.35;6.30;;;;;;;-0.59;100.00;99440.92;1782419;80;21113;-57
2021/01/27 10:55:00;;;;;;;12.85;6.12;;;;;;;-0.59;100.00;99422.48;1782139;80;21122;-57
2021/01/27 10:57:28;;;;;;;14.00;6.17;;;;;;;-0.59;100.00;99354.04;1782010;80;21593;-56
2021/01/27 10:59:57;;;;;;;12.47;6.43;;;;;;;-0.59;100.00;99356.67;1782378;80;22402;-56
2021/01/27 11:02:28;;;;;;;14.30;6.87;;;;;;;-0.57;100.00;99379.05;1788959;77;21566;-55
2021/01/27 11:04:56;;;;;;;14.55;6.80;;;;;;;-0.58;100.00;99351.84;1840737;77;21195;-54
2021/01/27 11:07:24;;;;;;;12.30;6.07;;;;;;;-0.58;100.00;99390.01;1840827;78;21611;-54
2021/01/27 11:09:53;;;;;;;13.45;6.97;;;;;;;-0.57;100.00;99327.71;1840751;78;21151;-54
2021/01/27 11:12:21;;;;;;;11.97;6.43;;;;;;;-0.58;100.00;99337.36;1840523;78;21591;-54
2021/01/27 11:14:50;;;;;;;14.67;7.17;;;;;;;-0.56;100.00;99375.95;1840286;77;21120;-54
2021/01/27 11:17:21;;;;;;;12.60;5.87;;;;;;;-0.56;100.00;99357.52;1840585;78;21120;-53
2021/01/27 11:19:49;;;;;;;18.20;6.42;;;;;;;-0.56;100.00;99316.72;1840687;78;21111;-54
2021/01/27 11:22:18;;;;;;;12.80;7.08;;;;;;;-0.56;100.00;99375.95;1840717;78;21147;-53
2021/01/27 11:24:45;;;;;;;14.40;4.73;;;;;;;-0.55;100.00;99332.94;1840195;78;21209;-53
2021/01/27 11:27:13;;;;;;;10.58;4.62;;;;;;;-0.57;100.00;99334.29;1839856;78;21115;-54
2021/01/27 11:29:46;;;;;;;8.60;4.83;;;;;;;-0.56;100.00;99360.16;1840024;78;21167;-55
2021/01/27 11:32:13;;;;;;;11.97;6.08;;;;;;;-0.58;100.00;99418.97;1810447;78;21595;-54
2021/01/27 11:34:42;;;;;;;10.35;5.05;;;;;;;-0.58;100.00;99304.91;1840246;78;21442;-55
2021/01/27 11:37:10;;;;;;;10.68;5.50;;;;;;;-0.58;100.00;99313.66;1835202;78;21354;-55
2021/01/27 11:39:37;;;;;;;9.63;5.08;;;;;;;-0.58;100.00;99303.12;1781783;80;21129;-54
2021/01/27 11:42:05;;;;;;;15.50;6.45;;;;;;;-0.55;100.00;99322.41;1781927;80;21157;-55
2021/01/27 11:44:33;;;;;;;7.47;3.33;;;;;;;-0.58;100.00;99321.56;1808317;78;21140;-55
2021/01/27 11:47:06;;;;;;;11.08;5.87;;;;;;;-0.58;100.00;99284.70;1858172;77;21100;-55
2021/01/27 11:49:42;;;;;;;11.20;4.65;;;;;;;-0.58;100.00;99271.54;1806064;77;22280;-55
2021/01/27 11:52:09;;;;;;;9.08;4.83;;;;;;;-0.57;100.00;99292.17;1862923;77;21089;-55
2021/01/27 11:54:43;;;;;;;10.55;5.20;;;;;;;-0.55;100.00;99297.40;1863005;77;21037;-54
2021/01/27 11:57:22;;;;;;;19.15;5.45;;;;;;;-0.55;100.00;99328.98;1803266;77;21105;-60
2021/01/27 11:59:53;;;;;;;11.12;6.20;;;;;;;-0.54;100.00;99300.48;1862847;77;21473;-59
2021/01/27 12:02:21;;;;;;;9.33;4.80;;;;;;;-0.54;100.00;99292.59;1862997;77;21185;-60
2021/01/27 12:04:48;;;;;;;12.70;5.47;;;;;;;-0.52;100.00;99352.22;1863072;77;21130;-59